Time;durP1;ratioP1;P1;durP2;ratioP2;P2;SDS_P1;SDS_P2;PMS_P1;PMS_P2;Temp;Humidity;BMP_temperature;BMP_pressure;BME280_temperature;BME280_humidity;BME280_pressure;Samples;Min_cycle;Max_cycle;Signal;HPM_P1;HPM_P2
2023/06/05 00:00:09;;;;;;;5.47;3.58;;;;;;;;;;6284525;28;20294;-88
2023/06/05 00:03:11;;;;;;;5.40;3.65;;;;;;;;;;6299347;28;20059;-87
2023/06/05 00:06:13;;;;;;;6.05;4.07;;;;;;;;;;6298928;28;20052;-88
2023/06/05 00:09:17;;;;;;;4.00;3.50;;;;;;;;;;6294712;28;20051;-89
2023/06/05 00:12:19;;;;;;;6.18;3.90;;;;;;;;;;6280049;28;20044;-88
2023/06/05 00:15:20;;;;;;;5.18;3.90;;;;;;;;;;6300060;28;20053;-89
2023/06/05 00:18:22;;;;;;;5.18;4.13;;;;;;;;;;6301548;28;20335;-88
2023/06/05 00:21:25;;;;;;;5.18;4.15;;;;;;;;;;6299138;28;20048;-88
2023/06/05 00:24:28;;;;;;;7.40;4.63;;;;;;;;;;6281504;28;20191;-88
2023/06/05 00:27:30;;;;;;;6.22;4.97;;;;;;;;;;6303470;28;20048;-87
2023/06/05 00:30:31;;;;;;;7.78;4.93;;;;;;;;;;6295369;28;20060;-86
2023/06/05 00:33:33;;;;;;;8.32;6.20;;;;;;;;;;6298345;28;20053;-88
2023/06/05 00:36:36;;;;;;;9.90;6.70;;;;;;;;;;6287226;28;20057;-89
2023/06/05 00:39:40;;;;;;;6.80;5.57;;;;;;;;;;6294646;28;20112;-90
2023/06/05 00:42:42;;;;;;;9.15;6.43;;;;;;;;;;6301858;28;20083;-87
2023/06/05 00:45:44;;;;;;;8.35;6.57;;;;;;;;;;6305952;28;20106;-89
2023/06/05 00:48:48;;;;;;;7.88;5.97;;;;;;;;;;6300541;28;20098;-88
2023/06/05 00:51:50;;;;;;;8.68;6.35;;;;;;;;;;6298079;28;20601;-88
2023/06/05 00:54:54;;;;;;;7.97;6.22;;;;;;;;;;6300711;28;20075;-89
2023/06/05 00:57:56;;;;;;;7.03;5.93;;;;;;;;;;6301308;28;20265;-87
2023/06/05 01:00:58;;;;;;;9.05;6.70;;;;;;;;;;6296720;28;20051;-87
2023/06/05 01:04:03;;;;;;;9.68;6.60;;;;;;;;;;6298541;28;20232;-87
2023/06/05 01:07:05;;;;;;;9.50;6.70;;;;;;;;;;6299094;28;20056;-87
2023/06/05 01:10:09;;;;;;;8.93;6.38;;;;;;;;;;6295616;28;20052;-87
2023/06/05 01:13:16;;;;;;;8.93;6.40;;;;;;;;;;6296024;28;20607;-88
2023/06/05 01:16:18;;;;;;;7.60;6.28;;;;;;;;;;6298809;28;20060;-88
2023/06/05 01:19:21;;;;;;;9.27;6.50;;;;;;;;;;6298740;28;20056;-88
2023/06/05 01:22:25;;;;;;;7.32;5.90;;;;;;;;;;6281519;28;20252;-86
2023/06/05 01:25:29;;;;;;;9.43;6.70;;;;;;;;;;6300235;28;20063;-85
2023/06/05 01:28:32;;;;;;;8.45;6.40;;;;;;;;;;6296482;28;20336;-89
2023/06/05 01:31:36;;;;;;;9.32;6.55;;;;;;;;;;6295159;28;20055;-85
2023/06/05 01:34:38;;;;;;;9.23;6.68;;;;;;;;;;6298776;28;20056;-89
2023/06/05 01:37:46;;;;;;;7.90;6.40;;;;;;;;;;6299424;28;20059;-87
2023/06/05 01:40:50;;;;;;;8.63;6.45;;;;;;;;;;6293615;28;20048;-87
2023/06/05 01:43:53;;;;;;;7.28;6.00;;;;;;;;;;6295963;28;20052;-88
2023/06/05 01:46:55;;;;;;;8.30;6.00;;;;;;;;;;6302103;28;20134;-86
2023/06/05 01:49:56;;;;;;;8.13;6.00;;;;;;;;;;6300590;28;21146;-85
2023/06/05 01:53:01;;;;;;;9.05;6.60;;;;;;;;;;6297769;28;20062;-87
2023/06/05 01:56:06;;;;;;;8.95;6.90;;;;;;;;;;6279964;28;20094;-87
2023/06/05 01:59:08;;;;;;;9.13;6.15;;;;;;;;;;6301065;28;20048;-88
2023/06/05 02:02:10;;;;;;;7.60;5.40;;;;;;;;;;6294166;28;20049;-85
2023/06/05 02:05:12;;;;;;;6.88;5.55;;;;;;;;;;6295602;28;20052;-86
2023/06/05 02:08:19;;;;;;;8.25;5.40;;;;;;;;;;6292355;28;20064;-85
2023/06/05 02:11:22;;;;;;;8.40;5.18;;;;;;;;;;6299711;28;20120;-86
2023/06/05 02:14:24;;;;;;;6.70;5.15;;;;;;;;;;6298134;28;20057;-86
2023/06/05 02:17:26;;;;;;;5.95;5.13;;;;;;;;;;6295372;28;20057;-86
2023/06/05 02:20:28;;;;;;;6.50;4.35;;;;;;;;;;6298410;28;20743;-85
2023/06/05 02:23:31;;;;;;;7.18;4.35;;;;;;;;;;6296933;28;20107;-87
2023/06/05 02:26:34;;;;;;;6.50;4.75;;;;;;;;;;6293484;28;20055;-83
2023/06/05 02:29:37;;;;;;;6.30;4.72;;;;;;;;;;6296076;28;20052;-85
2023/06/05 02:32:41;;;;;;;5.95;5.05;;;;;;;;;;6293344;28;20056;-85
2023/06/05 02:35:43;;;;;;;6.53;4.88;;;;;;;;;;6299981;28;20048;-85
2023/06/05 02:38:46;;;;;;;7.63;5.25;;;;;;;;;;6297566;28;20052;-88
2023/06/05 02:41:49;;;;;;;8.85;5.00;;;;;;;;;;6306659;28;20112;-87
2023/06/05 02:44:51;;;;;;;6.70;5.07;;;;;;;;;;6302353;28;20090;-88
2023/06/05 02:47:53;;;;;;;6.03;4.70;;;;;;;;;;6305415;28;20106;-87
2023/06/05 02:50:57;;;;;;;5.93;5.03;;;;;;;;;;6308679;28;20068;-87
2023/06/05 02:53:58;;;;;;;5.85;4.78;;;;;;;;;;6302910;28;20056;-87
2023/06/05 02:57:02;;;;;;;6.03;4.55;;;;;;;;;;6304837;28;20060;-87
2023/06/05 03:00:07;;;;;;;7.32;5.28;;;;;;;;;;6301219;28;20055;-86
2023/06/05 03:03:10;;;;;;;5.85;4.90;;;;;;;;;;6304247;28;20095;-89
2023/06/05 03:06:12;;;;;;;6.00;4.13;;;;;;;;;;6301641;28;20737;-88
2023/06/05 03:09:16;;;;;;;5.55;4.72;;;;;;;;;;6303295;28;20041;-86
2023/06/05 03:12:19;;;;;;;7.00;5.20;;;;;;;;;;6303377;28;20316;-87
2023/06/05 03:15:20;;;;;;;5.95;4.70;;;;;;;;;;6300308;28;20049;-88
2023/06/05 03:18:22;;;;;;;5.65;4.47;;;;;;;;;;6308190;28;20091;-87
2023/06/05 03:21:24;;;;;;;7.57;4.80;;;;;;;;;;6305641;28;20063;-88
2023/06/05 03:24:27;;;;;;;6.85;5.13;;;;;;;;;;6301014;28;20048;-88
2023/06/05 03:27:31;;;;;;;6.55;4.85;;;;;;;;;;6304244;28;20044;-87
2023/06/05 03:30:33;;;;;;;8.70;5.20;;;;;;;;;;6305827;28;20045;-88
2023/06/05 03:33:34;;;;;;;7.95;4.55;;;;;;;;;;6285288;28;20136;-88
2023/06/05 03:36:38;;;;;;;7.97;5.22;;;;;;;;;;6301796;28;20068;-86
2023/06/05 03:39:39;;;;;;;10.65;5.28;;;;;;;;;;6302770;28;20061;-88
2023/06/05 03:42:42;;;;;;;7.30;4.90;;;;;;;;;;6300730;28;20110;-87
2023/06/05 03:45:44;;;;;;;6.13;5.18;;;;;;;;;;6302233;28;20064;-88
2023/06/05 03:48:46;;;;;;;8.23;4.88;;;;;;;;;;6300156;28;20056;-87
2023/06/05 03:51:49;;;;;;;7.47;5.55;;;;;;;;;;6299683;28;20232;-87
2023/06/05 03:54:55;;;;;;;7.13;5.20;;;;;;;;;;6306425;28;20107;-86
2023/06/05 03:57:59;;;;;;;6.75;4.88;;;;;;;;;;6298882;28;20147;-86
2023/06/05 04:01:00;;;;;;;8.90;5.25;;;;;;;;;;6306485;28;20226;-87
2023/06/05 04:04:02;;;;;;;7.00;5.10;;;;;;;;;;6303952;28;20067;-87
2023/06/05 04:07:05;;;;;;;7.82;5.50;;;;;;;;;;6304200;28;20236;-89
2023/06/05 04:10:07;;;;;;;8.88;5.88;;;;;;;;;;6298040;28;20076;-87
2023/06/05 04:13:11;;;;;;;6.03;4.88;;;;;;;;;;6300081;28;20258;-87
2023/06/05 04:16:13;;;;;;;8.80;5.32;;;;;;;;;;6303671;28;20316;-87
2023/06/05 04:19:15;;;;;;;7.28;5.50;;;;;;;;;;6300319;28;20060;-86
2023/06/05 04:22:17;;;;;;;7.97;5.90;;;;;;;;;;6299942;28;20048;-86
2023/06/05 04:25:19;;;;;;;9.70;5.85;;;;;;;;;;6298875;28;20056;-87
2023/06/05 04:28:22;;;;;;;8.07;5.60;;;;;;;;;;6304720;28;20341;-88
2023/06/05 04:31:24;;;;;;;7.45;5.53;;;;;;;;;;6306743;28;20052;-88
2023/06/05 04:34:26;;;;;;;8.55;6.07;;;;;;;;;;6299084;28;20052;-86
2023/06/05 04:37:28;;;;;;;8.85;6.20;;;;;;;;;;6298155;28;20458;-87
2023/06/05 04:40:31;;;;;;;9.05;6.72;;;;;;;;;;6298747;28;20356;-86
2023/06/05 04:43:34;;;;;;;10.80;7.43;;;;;;;;;;6298010;28;20095;-88
2023/06/05 04:46:38;;;;;;;9.25;7.47;;;;;;;;;;6300246;28;20052;-87
2023/06/05 04:49:40;;;;;;;11.30;8.15;;;;;;;;;;6304662;28;20052;-88
2023/06/05 04:52:42;;;;;;;10.60;7.70;;;;;;;;;;6301263;28;20094;-88
2023/06/05 04:55:45;;;;;;;8.63;6.30;;;;;;;;;;6296809;28;20111;-87
2023/06/05 04:58:50;;;;;;;9.77;7.40;;;;;;;;;;6298975;28;20224;-87
2023/06/05 05:01:51;;;;;;;11.63;7.40;;;;;;;;;;6299822;28;20048;-87
2023/06/05 05:04:53;;;;;;;10.13;7.13;;;;;;;;;;6298265;28;20059;-87
2023/06/05 05:07:55;;;;;;;9.85;7.05;;;;;;;;;;6301498;28;20060;-90
2023/06/05 05:10:57;;;;;;;10.50;7.28;;;;;;;;;;6281652;28;20060;-87
2023/06/05 05:14:00;;;;;;;10.75;7.05;;;;;;;;;;6304709;28;20067;-83
2023/06/05 05:17:02;;;;;;;8.88;6.30;;;;;;;;;;6296365;28;20103;-87
2023/06/05 05:20:06;;;;;;;10.30;6.90;;;;;;;;;;6300324;28;20064;-87
2023/06/05 05:23:09;;;;;;;8.10;6.22;;;;;;;;;;6285677;28;20067;-85
2023/06/05 05:26:10;;;;;;;8.82;6.30;;;;;;;;;;6297795;28;20116;-82
2023/06/05 05:29:14;;;;;;;8.70;6.38;;;;;;;;;;6287189;28;20225;-85
2023/06/05 05:32:22;;;;;;;9.65;5.90;;;;;;;;;;6300055;28;20332;-85
2023/06/05 05:35:24;;;;;;;7.03;4.82;;;;;;;;;;6299128;28;20051;-86
2023/06/05 05:38:26;;;;;;;8.10;5.15;;;;;;;;;;6298468;28;20366;-85
2023/06/05 05:41:28;;;;;;;6.60;5.07;;;;;;;;;;6301354;28;20143;-85
2023/06/05 05:44:31;;;;;;;8.35;5.05;;;;;;;;;;6293732;28;20068;-85
2023/06/05 05:47:33;;;;;;;8.65;5.10;;;;;;;;;;6298578;28;20066;-84
2023/06/05 05:50:34;;;;;;;7.45;5.40;;;;;;;;;;6296486;28;20056;-84
2023/06/05 05:53:36;;;;;;;9.63;5.97;;;;;;;;;;6295973;28;20056;-85
2023/06/05 05:56:38;;;;;;;8.55;5.85;;;;;;;;;;6297336;28;20116;-86
2023/06/05 05:59:44;;;;;;;10.50;5.70;;;;;;;;;;6299073;28;20052;-85
2023/06/05 06:02:47;;;;;;;8.85;6.03;;;;;;;;;;6297808;28;20055;-84
2023/06/05 06:05:48;;;;;;;8.23;5.55;;;;;;;;;;6298422;28;20068;-85
2023/06/05 06:08:51;;;;;;;10.75;5.80;;;;;;;;;;6298838;28;20053;-84
2023/06/05 06:11:55;;;;;;;11.38;7.13;;;;;;;;;;6299377;28;20225;-83
2023/06/05 06:14:58;;;;;;;6.97;5.70;;;;;;;;;;6301813;28;20052;-84
2023/06/05 06:18:02;;;;;;;8.77;6.15;;;;;;;;;;6300817;28;20052;-83
2023/06/05 06:21:04;;;;;;;9.18;6.47;;;;;;;;;;6303754;28;20108;-83
2023/06/05 06:24:06;;;;;;;10.48;6.47;;;;;;;;;;6299899;28;20048;-88
2023/06/05 06:27:09;;;;;;;8.38;6.30;;;;;;;;;;6302665;28;20044;-88
2023/06/05 06:30:12;;;;;;;9.23;5.55;;;;;;;;;;6301934;28;20067;-89
2023/06/05 06:33:14;;;;;;;6.88;4.97;;;;;;;;;;6303430;28;20355;-89
2023/06/05 06:36:17;;;;;;;7.50;5.13;;;;;;;;;;6301443;28;20107;-88
2023/06/05 06:39:19;;;;;;;6.78;5.72;;;;;;;;;;6303254;28;20044;-89
2023/06/05 06:42:21;;;;;;;7.00;5.63;;;;;;;;;;6303431;28;20075;-88
2023/06/05 06:45:24;;;;;;;9.40;6.20;;;;;;;;;;6305835;28;20110;-88
2023/06/05 06:48:26;;;;;;;8.80;5.65;;;;;;;;;;6306148;28;20044;-88
2023/06/05 06:51:28;;;;;;;8.65;5.28;;;;;;;;;;6304274;28;20302;-88
2023/06/05 06:54:31;;;;;;;9.60;6.03;;;;;;;;;;6301446;28;20056;-87
2023/06/05 06:57:33;;;;;;;8.95;5.70;;;;;;;;;;6303736;28;20048;-88
2023/06/05 07:00:36;;;;;;;9.40;6.40;;;;;;;;;;6305684;28;20340;-87
2023/06/05 07:03:38;;;;;;;8.30;6.30;;;;;;;;;;6304481;28;20309;-88
2023/06/05 07:06:39;;;;;;;8.43;6.00;;;;;;;;;;6302254;28;20112;-88
2023/06/05 07:09:42;;;;;;;9.82;6.03;;;;;;;;;;6306989;28;20294;-88
2023/06/05 07:12:46;;;;;;;7.25;5.55;;;;;;;;;;6302392;28;20104;-88
2023/06/05 07:15:50;;;;;;;9.73;6.20;;;;;;;;;;6303467;28;20052;-89
2023/06/05 07:18:53;;;;;;;8.35;6.28;;;;;;;;;;6304975;28;20060;-88
2023/06/05 07:21:56;;;;;;;12.32;6.68;;;;;;;;;;6305136;28;20062;-88
2023/06/05 07:24:58;;;;;;;11.07;6.70;;;;;;;;;;6303523;28;20077;-88
2023/06/05 07:28:00;;;;;;;7.13;6.07;;;;;;;;;;6302592;28;20056;-88
2023/06/05 07:31:04;;;;;;;8.80;6.38;;;;;;;;;;6305766;28;20059;-87
2023/06/05 07:34:06;;;;;;;;;;;;;;;;;;6285865;28;20132;-88
2023/06/05 07:37:08;;;;;;;10.18;6.78;;;;;;;;;;6305963;28;20176;-88
2023/06/05 07:40:11;;;;;;;8.75;5.53;;;;;;;;;;6295817;28;20057;-88
2023/06/05 07:43:14;;;;;;;8.07;6.80;;;;;;;;;;6260251;28;20158;-87
2023/06/05 07:46:17;;;;;;;10.18;6.72;;;;;;;;;;6275762;28;20282;-89
2023/06/05 07:49:19;;;;;;;10.32;6.72;;;;;;;;;;6302585;28;20713;-87
2023/06/05 07:52:21;;;;;;;12.82;8.48;;;;;;;;;;6302095;28;20716;-87
2023/06/05 07:55:24;;;;;;;11.40;8.25;;;;;;;;;;6303081;28;20048;-87
2023/06/05 07:58:27;;;;;;;10.95;8.45;;;;;;;;;;6301911;28;20048;-88
2023/06/05 08:01:31;;;;;;;11.20;8.70;;;;;;;;;;6304726;28;20060;-86
2023/06/05 08:04:33;;;;;;;12.90;9.60;;;;;;;;;;6304421;28;20045;-86
2023/06/05 08:07:35;;;;;;;14.25;10.20;;;;;;;;;;6300841;28;20098;-86
2023/06/05 08:10:37;;;;;;;16.95;10.70;;;;;;;;;;6300355;28;20052;-87
2023/06/05 08:13:39;;;;;;;16.77;11.25;;;;;;;;;;6301361;28;20056;-86
2023/06/05 08:16:42;;;;;;;14.13;10.68;;;;;;;;;;6301146;28;20241;-86
2023/06/05 08:19:44;;;;;;;14.52;10.32;;;;;;;;;;6305414;28;20068;-87
2023/06/05 08:22:46;;;;;;;14.10;10.88;;;;;;;;;;6303806;28;20321;-87
2023/06/05 08:25:48;;;;;;;15.57;11.23;;;;;;;;;;6304198;28;20052;-87
2023/06/05 08:28:50;;;;;;;14.65;11.93;;;;;;;;;;6301851;28;20395;-86
2023/06/05 08:31:53;;;;;;;16.00;12.45;;;;;;;;;;6302458;28;20394;-88
2023/06/05 08:34:55;;;;;;;16.13;12.27;;;;;;;;;;6298296;28;20102;-87
2023/06/05 08:37:58;;;;;;;16.63;11.43;;;;;;;;;;6302127;28;20052;-87
2023/06/05 08:41:01;;;;;;;17.67;12.02;;;;;;;;;;6299936;28;20174;-87
2023/06/05 08:44:03;;;;;;;;;;;;;;;;;;6296409;28;20060;-87
2023/06/05 08:47:08;;;;;;;14.82;11.13;;;;;;;;;;6294041;28;19935;-88
2023/06/05 08:50:10;;;;;;;15.65;12.68;;;;;;;;;;6303526;28;20072;-88
2023/06/05 08:53:16;;;;;;;14.68;10.25;;;;;;;;;;6298412;28;20236;-88
2023/06/05 08:56:18;;;;;;;12.20;10.10;;;;;;;;;;6296546;28;20052;-88
2023/06/05 08:59:23;;;;;;;12.52;10.48;;;;;;;;;;6297233;28;20059;-87
2023/06/05 09:02:27;;;;;;;13.85;10.48;;;;;;;;;;6297918;28;20062;-87
2023/06/05 09:05:28;;;;;;;12.90;10.93;;;;;;;;;;6296733;28;20139;-87
2023/06/05 09:08:35;;;;;;;12.43;10.07;;;;;;;;;;6297045;28;20044;-87
2023/06/05 09:11:38;;;;;;;11.75;9.95;;;;;;;;;;6298764;28;20143;-88
2023/06/05 09:14:40;;;;;;;13.00;9.93;;;;;;;;;;6295671;28;20041;-87
2023/06/05 09:17:43;;;;;;;12.85;10.23;;;;;;;;;;6295219;28;20166;-86
2023/06/05 09:20:47;;;;;;;13.75;11.13;;;;;;;;;;6292726;28;20052;-87
2023/06/05 09:23:49;;;;;;;11.95;9.48;;;;;;;;;;6295467;28;20102;-87
2023/06/05 09:26:56;;;;;;;15.55;11.40;;;;;;;;;;6291558;28;20044;-87
2023/06/05 09:30:08;;;;;;;13.07;10.20;;;;;;;;;;6296009;28;20060;-86
2023/06/05 09:33:15;;;;;;;12.50;10.55;;;;;;;;;;6296052;28;20248;-86
2023/06/05 09:36:16;;;;;;;12.80;9.93;;;;;;;;;;6292401;28;20052;-86
2023/06/05 09:39:21;;;;;;;11.95;10.35;;;;;;;;;;6296816;28;20135;-87
2023/06/05 09:42:32;;;;;;;11.98;9.75;;;;;;;;;;6293043;28;20327;-89
2023/06/05 09:45:42;;;;;;;11.95;8.85;;;;;;;;;;6296907;28;20098;-86
2023/06/05 09:49:02;;;;;;;11.10;8.70;;;;;;;;;;6297160;28;20051;-87
2023/06/05 09:52:04;;;;;;;8.68;7.75;;;;;;;;;;6295267;28;20063;-87
2023/06/05 09:55:07;;;;;;;11.00;9.30;;;;;;;;;;6296126;28;20210;-86
2023/06/05 09:58:13;;;;;;;11.02;9.55;;;;;;;;;;6297417;28;20056;-86
2023/06/05 10:01:18;;;;;;;11.43;9.38;;;;;;;;;;6292218;28;20052;-87
2023/06/05 10:04:23;;;;;;;9.07;8.07;;;;;;;;;;6298171;28;20070;-86
2023/06/05 10:07:25;;;;;;;9.05;8.07;;;;;;;;;;6296154;28;20063;-86
2023/06/05 10:10:27;;;;;;;10.20;8.45;;;;;;;;;;6295740;28;20041;-86
2023/06/05 10:13:29;;;;;;;10.80;9.70;;;;;;;;;;6298039;28;20337;-86
2023/06/05 10:16:32;;;;;;;13.05;10.05;;;;;;;;;;6293983;28;20057;-87
2023/06/05 10:19:35;;;;;;;11.05;9.25;;;;;;;;;;6292336;28;20336;-87
2023/06/05 10:22:38;;;;;;;11.10;9.32;;;;;;;;;;6300435;28;20175;-86
2023/06/05 10:25:41;;;;;;;9.95;8.95;;;;;;;;;;6296641;28;20080;-86
2023/06/05 10:28:50;;;;;;;12.20;8.63;;;;;;;;;;6292206;28;20052;-86
2023/06/05 10:31:54;;;;;;;11.07;9.90;;;;;;;;;;6293981;28;20333;-86
2023/06/05 10:35:05;;;;;;;9.95;8.15;;;;;;;;;;6294252;28;20226;-86
2023/06/05 10:38:17;;;;;;;11.40;8.15;;;;;;;;;;6293589;28;20053;-86
2023/06/05 10:41:19;;;;;;;9.15;7.43;;;;;;;;;;6296305;28;20052;-85
2023/06/05 10:44:39;;;;;;;9.73;7.40;;;;;;;;;;6295717;28;20271;-86
2023/06/05 10:47:53;;;;;;;7.95;6.90;;;;;;;;;;6290734;28;20067;-86
2023/06/05 10:51:37;;;;;;;7.10;5.82;;;;;;;;;;6298992;28;20308;-86
2023/06/05 10:54:58;;;;;;;6.30;5.70;;;;;;;;;;6295025;28;20064;-86
2023/06/05 10:58:10;;;;;;;8.32;5.57;;;;;;;;;;6295980;28;20336;-86
2023/06/05 11:01:20;;;;;;;10.40;6.20;;;;;;;;;;6296851;28;20045;-85
2023/06/05 11:04:24;;;;;;;7.10;5.80;;;;;;;;;;6296518;28;20233;-86
2023/06/05 11:07:28;;;;;;;7.03;6.15;;;;;;;;;;6296437;28;20063;-86
2023/06/05 11:10:30;;;;;;;6.47;5.40;;;;;;;;;;6297126;28;20048;-86
2023/06/05 11:13:54;;;;;;;8.35;5.93;;;;;;;;;;6301729;28;20426;-85
2023/06/05 11:16:56;;;;;;;7.70;6.90;;;;;;;;;;6295106;28;20645;-85
2023/06/05 11:19:58;;;;;;;7.03;6.25;;;;;;;;;;6299135;28;20048;-86
2023/06/05 11:23:10;;;;;;;7.85;6.53;;;;;;;;;;6302572;28;20071;-85
2023/06/05 11:26:43;;;;;;;7.43;6.60;;;;;;;;;;6297783;28;20059;-86
2023/06/05 11:29:48;;;;;;;8.43;7.05;;;;;;;;;;6299104;28;20128;-86
2023/06/05 11:32:52;;;;;;;10.25;6.60;;;;;;;;;;6296304;28;20072;-86
2023/06/05 11:35:53;;;;;;;8.68;6.20;;;;;;;;;;6297338;28;20361;-86
2023/06/05 11:38:57;;;;;;;6.38;5.25;;;;;;;;;;6297636;28;20095;-85
2023/06/05 11:41:59;;;;;;;4.22;3.83;;;;;;;;;;6304171;28;20048;-86
2023/06/05 11:45:01;;;;;;;4.22;3.83;;;;;;;;;;6295781;28;20333;-85
2023/06/05 11:48:08;;;;;;;4.63;3.70;;;;;;;;;;6282512;28;20301;-86
2023/06/05 11:51:09;;;;;;;4.43;3.72;;;;;;;;;;6288483;28;20044;-85
2023/06/05 11:54:25;;;;;;;3.80;3.40;;;;;;;;;;6297670;28;22617;-84
2023/06/05 11:57:28;;;;;;;3.80;3.47;;;;;;;;;;6300790;28;20075;-85
2023/06/05 12:00:29;;;;;;;;;;;;;;;;;;6301249;28;20088;-86
2023/06/05 12:03:32;;;;;;;4.30;3.90;;;;;;;;;;6296140;28;19924;-86
2023/06/05 12:06:37;;;;;;;3.78;3.28;;;;;;;;;;6297448;28;20324;-86
2023/06/05 12:09:40;;;;;;;4.03;3.50;;;;;;;;;;6298733;28;20056;-85
2023/06/05 12:12:51;;;;;;;2.95;2.67;;;;;;;;;;6296244;28;20049;-85
2023/06/05 12:15:59;;;;;;;3.00;2.70;;;;;;;;;;6298509;28;20124;-87
2023/06/05 12:19:01;;;;;;;2.90;2.60;;;;;;;;;;6295648;28;20244;-85
2023/06/05 12:22:05;;;;;;;3.35;2.92;;;;;;;;;;6296034;28;20111;-85
2023/06/05 12:25:19;;;;;;;3.00;2.70;;;;;;;;;;6298395;28;20045;-85
2023/06/05 12:28:21;;;;;;;3.40;2.45;;;;;;;;;;6296307;28;20049;-86
2023/06/05 12:31:39;;;;;;;2.83;2.15;;;;;;;;;;6298736;28;20052;-85
2023/06/05 12:34:44;;;;;;;3.08;2.13;;;;;;;;;;6300724;28;20056;-86
2023/06/05 12:37:47;;;;;;;1.90;1.75;;;;;;;;;;6297951;28;20588;-85
2023/06/05 12:40:52;;;;;;;2.47;1.90;;;;;;;;;;6297613;28;20060;-86
2023/06/05 12:44:01;;;;;;;2.28;1.70;;;;;;;;;;6298530;28;20121;-85
2023/06/05 12:47:05;;;;;;;2.67;2.13;;;;;;;;;;6294046;28;20072;-85
2023/06/05 12:50:11;;;;;;;3.60;1.45;;;;;;;;;;6292593;28;20135;-85
2023/06/05 12:53:13;;;;;;;2.45;1.60;;;;;;;;;;6298868;28;20058;-86
2023/06/05 12:56:16;;;;;;;2.07;1.70;;;;;;;;;;6295200;28;20057;-86
2023/06/05 12:59:18;;;;;;;1.80;1.20;;;;;;;;;;6297896;28;20458;-85
2023/06/05 13:02:20;;;;;;;1.25;1.08;;;;;;;;;;6292052;28;20044;-85
2023/06/05 13:05:22;;;;;;;2.70;1.20;;;;;;;;;;6295865;28;20107;-86
2023/06/05 13:08:25;;;;;;;2.53;1.33;;;;;;;;;;6296826;28;20090;-85
2023/06/05 13:11:28;;;;;;;1.90;1.50;;;;;;;;;;6295216;28;20048;-85
2023/06/05 13:14:34;;;;;;;1.60;1.20;;;;;;;;;;6290708;28;20060;-86
2023/06/05 13:17:37;;;;;;;2.15;1.30;;;;;;;;;;6291734;28;20641;-86
2023/06/05 13:20:40;;;;;;;1.48;1.13;;;;;;;;;;6295812;28;20135;-85
2023/06/05 13:23:41;;;;;;;2.03;1.05;;;;;;;;;;6295518;28;20111;-85
2023/06/05 13:26:46;;;;;;;2.63;1.38;;;;;;;;;;6295333;28;20232;-85
2023/06/05 13:29:48;;;;;;;2.45;1.65;;;;;;;;;;6293197;28;20071;-85
2023/06/05 13:32:52;;;;;;;3.45;1.70;;;;;;;;;;6298716;28;20053;-86
2023/06/05 13:35:54;;;;;;;1.40;1.20;;;;;;;;;;6290646;28;20051;-85
2023/06/05 13:38:56;;;;;;;1.80;1.60;;;;;;;;;;6288860;28;20052;-85
2023/06/05 13:42:02;;;;;;;3.33;1.70;;;;;;;;;;6296565;28;20040;-85
2023/06/05 13:45:05;;;;;;;2.40;1.88;;;;;;;;;;6294737;28;20108;-86
2023/06/05 13:48:09;;;;;;;2.58;2.15;;;;;;;;;;6302876;28;20328;-86
2023/06/05 13:51:11;;;;;;;2.70;2.00;;;;;;;;;;6278198;28;20040;-80
2023/06/05 13:54:13;;;;;;;2.47;1.88;;;;;;;;;;6291495;28;20117;-83
2023/06/05 13:57:16;;;;;;;2.00;1.80;;;;;;;;;;6299640;28;20049;-86
2023/06/05 14:00:19;;;;;;;2.38;1.98;;;;;;;;;;6292703;28;20123;-82
2023/06/05 14:03:21;;;;;;;2.03;1.50;;;;;;;;;;6295398;28;20048;-82
2023/06/05 14:06:23;;;;;;;1.67;1.40;;;;;;;;;;6295115;28;20115;-83
2023/06/05 14:09:27;;;;;;;2.05;1.63;;;;;;;;;;6298129;28;20333;-85
2023/06/05 14:12:30;;;;;;;2.38;1.70;;;;;;;;;;6286477;28;20101;-90
2023/06/05 14:15:33;;;;;;;2.20;1.65;;;;;;;;;;6294519;28;20115;-91
2023/06/05 14:18:35;;;;;;;2.15;1.88;;;;;;;;;;6295096;28;20060;-92
2023/06/05 14:21:41;;;;;;;3.38;2.40;;;;;;;;;;6298925;28;20052;-91
2023/06/05 14:24:43;;;;;;;2.63;2.17;;;;;;;;;;6293737;28;20079;-92
2023/06/05 14:27:52;;;;;;;3.33;2.08;;;;;;;;;;6295070;28;20309;-90
2023/06/05 14:30:54;;;;;;;4.53;1.98;;;;;;;;;;6281924;28;20067;-91
2023/06/05 14:33:56;;;;;;;2.88;1.58;;;;;;;;;;6302999;28;20576;-93
2023/06/05 14:36:59;;;;;;;2.43;2.20;;;;;;;;;;6283827;28;20093;-92
2023/06/05 14:40:00;;;;;;;2.67;2.30;;;;;;;;;;6300545;28;20540;-93
2023/06/05 14:43:06;;;;;;;6.57;3.15;;;;;;;;;;6302750;28;20052;-90
2023/06/05 14:46:09;;;;;;;3.70;2.70;;;;;;;;;;6305711;28;20056;-92
2023/06/05 14:49:11;;;;;;;;;;;;;;;;;;6304182;28;20145;-92
2023/06/05 14:52:13;;;;;;;6.28;2.97;;;;;;;;;;6303145;28;19970;-91
2023/06/05 14:55:16;;;;;;;3.67;3.03;;;;;;;;;;6285742;28;20051;-90
2023/06/05 14:58:21;;;;;;;3.40;2.75;;;;;;;;;;6285900;28;20229;-91
2023/06/05 15:01:23;;;;;;;4.25;3.10;;;;;;;;;;6302173;28;20139;-89
2023/06/05 15:04:30;;;;;;;2.55;2.35;;;;;;;;;;6300613;28;20041;-92
2023/06/05 15:07:39;;;;;;;3.47;2.40;;;;;;;;;;6299334;28;20110;-92
2023/06/05 15:10:43;;;;;;;2.35;1.90;;;;;;;;;;6299620;28;20060;-90
2023/06/05 15:13:47;;;;;;;2.35;1.83;;;;;;;;;;6300717;28;20228;-89
2023/06/05 15:16:48;;;;;;;;;;;;;;;;;;6302097;28;20253;-90
2023/06/05 15:19:51;;;;;;;4.70;2.60;;;;;;;;;;6300920;28;19924;-91
2023/06/05 15:22:54;;;;;;;4.32;2.35;;;;;;;;;;6302914;28;20056;-90
2023/06/05 15:25:56;;;;;;;5.32;2.40;;;;;;;;;;6301493;28;20225;-91
2023/06/05 15:28:59;;;;;;;2.03;1.63;;;;;;;;;;6302426;28;20107;-89
2023/06/05 15:32:01;;;;;;;;;;;;;;;;;;6300371;28;20052;-90
2023/06/05 15:35:04;;;;;;;3.72;3.03;;;;;;;;;;6303221;28;19946;-90
2023/06/05 15:38:05;;;;;;;3.13;2.40;;;;;;;;;;6303204;28;20063;-90
2023/06/05 15:41:07;;;;;;;2.45;2.25;;;;;;;;;;6286466;28;20076;-89
2023/06/05 15:44:12;;;;;;;2.47;2.17;;;;;;;;;;6279550;28;20175;-90
2023/06/05 15:47:14;;;;;;;3.17;2.65;;;;;;;;;;6258683;28;20053;-90
2023/06/05 15:50:15;;;;;;;4.07;2.40;;;;;;;;;;6283723;28;20049;-90
2023/06/05 15:53:18;;;;;;;3.03;2.00;;;;;;;;;;6274658;28;20059;-89
2023/06/05 15:56:20;;;;;;;3.30;2.50;;;;;;;;;;6275885;28;20057;-90
2023/06/05 15:59:24;;;;;;;3.10;2.33;;;;;;;;;;6278245;28;20048;-90
2023/06/05 16:02:26;;;;;;;2.83;2.50;;;;;;;;;;6257286;28;20156;-89
2023/06/05 16:05:28;;;;;;;3.88;2.63;;;;;;;;;;6276426;28;20112;-87
2023/06/05 16:08:31;;;;;;;3.08;2.45;;;;;;;;;;6274325;28;20060;-89
2023/06/05 16:11:33;;;;;;;2.57;2.07;;;;;;;;;;6277194;28;20060;-89
2023/06/05 16:14:36;;;;;;;2.78;2.00;;;;;;;;;;6276852;28;20056;-89
2023/06/05 16:17:43;;;;;;;;;;;;;;;;;;6281443;28;20116;-89
2023/06/05 16:20:45;;;;;;;2.80;2.20;;;;;;;;;;6276467;28;20205;-89
2023/06/05 16:23:47;;;;;;;2.95;2.10;;;;;;;;;;6277925;28;20056;-89
2023/06/05 16:26:48;;;;;;;1.70;1.50;;;;;;;;;;6277752;28;20337;-90
2023/06/05 16:29:54;;;;;;;4.78;2.10;;;;;;;;;;6256322;28;20080;-89
2023/06/05 16:32:56;;;;;;;2.85;2.05;;;;;;;;;;6273860;28;20048;-90
2023/06/05 16:36:01;;;;;;;5.18;2.40;;;;;;;;;;6276534;28;20056;-89
2023/06/05 16:39:03;;;;;;;2.80;2.25;;;;;;;;;;6277353;28;20061;-89
2023/06/05 16:42:07;;;;;;;2.83;1.95;;;;;;;;;;6275459;28;20249;-89
2023/06/05 16:45:11;;;;;;;2.72;2.25;;;;;;;;;;6247720;28;20057;-88
2023/06/05 16:48:13;;;;;;;4.07;2.78;;;;;;;;;;6260272;28;20108;-88
2023/06/05 16:51:15;;;;;;;5.00;3.67;;;;;;;;;;6275738;28;20152;-91
2023/06/05 16:54:20;;;;;;;4.30;3.20;;;;;;;;;;6242075;28;20044;-89
2023/06/05 16:57:21;;;;;;;4.60;3.78;;;;;;;;;;6277886;28;20067;-89
2023/06/05 17:00:25;;;;;;;6.78;4.07;;;;;;;;;;6274419;28;20056;-89
2023/06/05 17:03:27;;;;;;;;;;;;;;;;;;6272914;28;20072;-89
2023/06/05 17:06:29;;;;;;;4.85;3.63;;;;;;;;;;6279270;28;19925;-89
2023/06/05 17:09:31;;;;;;;4.93;4.18;;;;;;;;;;6272509;28;20045;-89
2023/06/05 17:12:33;;;;;;;4.07;3.67;;;;;;;;;;6269005;28;20083;-88
2023/06/05 17:15:37;;;;;;;4.63;3.70;;;;;;;;;;6272703;28;20076;-84
2023/06/05 17:18:38;;;;;;;6.47;3.72;;;;;;;;;;6271204;28;20061;-82
2023/06/05 17:21:40;;;;;;;5.18;3.88;;;;;;;;;;6276272;28;20119;-82
2023/06/05 17:24:42;;;;;;;5.05;3.17;;;;;;;;;;6270085;28;20341;-75
2023/06/05 17:27:45;;;;;;;6.43;3.55;;;;;;;;;;6274911;28;20056;-80
2023/06/05 17:30:49;;;;;;;6.10;3.80;;;;;;;;;;6273666;28;20072;-79
2023/06/05 17:33:50;;;;;;;5.13;3.30;;;;;;;;;;6271804;28;20107;-79
2023/06/05 17:36:52;;;;;;;4.40;3.67;;;;;;;;;;6269470;28;20060;-78
2023/06/05 17:39:54;;;;;;;6.63;4.03;;;;;;;;;;6275718;28;20091;-77
2023/06/05 17:42:55;;;;;;;6.15;4.03;;;;;;;;;;6298096;28;20063;-79
2023/06/05 17:45:58;;;;;;;5.63;4.32;;;;;;;;;;6300896;28;20045;-79
2023/06/05 17:49:01;;;;;;;5.28;3.65;;;;;;;;;;6297657;28;20052;-79
2023/06/05 17:52:02;;;;;;;4.82;4.07;;;;;;;;;;6295663;28;20061;-78
2023/06/05 17:55:05;;;;;;;3.97;3.55;;;;;;;;;;6300274;28;20052;-78
2023/06/05 17:58:07;;;;;;;5.40;4.07;;;;;;;;;;6297621;28;20052;-75
2023/06/05 18:01:10;;;;;;;4.18;3.75;;;;;;;;;;6299491;28;20056;-82
2023/06/05 18:04:12;;;;;;;;;;;;;;;;;;6300220;28;20217;-81
2023/06/05 18:07:15;;;;;;;4.22;3.83;;;;;;;;;;6303736;28;19936;-82
2023/06/05 18:10:17;;;;;;;4.22;3.72;;;;;;;;;;6307247;28;20089;-82
2023/06/05 18:13:18;;;;;;;8.00;3.88;;;;;;;;;;6306999;28;20090;-82
2023/06/05 18:16:21;;;;;;;3.95;3.47;;;;;;;;;;6297724;28;20110;-83
2023/06/05 18:19:24;;;;;;;4.45;3.67;;;;;;;;;;6308200;28;20324;-86